createdAt,value
2023-03-12T00:00:10.111Z,77.00
2023-03-12T00:01:10.098Z,77.20
2023-03-12T00:02:10.119Z,77.42
2023-03-12T00:03:10.087Z,77.52
2023-03-12T00:04:10.165Z,77.31
2023-03-12T00:05:10.056Z,77.42
2023-03-12T00:06:11.050Z,77.42
2023-03-12T00:07:10.057Z,77.42
2023-03-12T00:08:10.025Z,77.48
2023-03-12T00:09:10.044Z,77.48
2023-03-12T00:10:09.996Z,77.94
2023-03-12T00:11:09.996Z,78.53
2023-03-12T00:12:10.000Z,78.22
2023-03-12T00:13:09.976Z,77.90
2023-03-12T00:14:09.950Z,77.80
2023-03-12T00:15:09.960Z,77.69
2023-03-12T00:16:10.069Z,77.48
2023-03-12T00:17:09.938Z,77.59
2023-03-12T00:18:09.909Z,77.59
2023-03-12T00:19:09.912Z,77.66
2023-03-12T00:20:09.915Z,77.66
2023-03-12T00:21:09.885Z,77.66
2023-03-12T00:22:09.863Z,77.55
2023-03-12T00:23:09.854Z,77.55
2023-03-12T00:24:09.851Z,77.45
2023-03-12T00:25:09.836Z,77.24
2023-03-12T00:26:09.874Z,77.14
2023-03-12T00:27:09.808Z,77.24
2023-03-12T00:28:09.812Z,77.14
2023-03-12T00:29:09.805Z,77.20
2023-03-12T00:30:09.784Z,77.31
2023-03-12T00:31:09.803Z,77.41
2023-03-12T00:32:09.771Z,77.31
2023-03-12T00:33:09.750Z,77.41
2023-03-12T00:34:09.734Z,77.20
2023-03-12T00:35:09.719Z,77.20
2023-03-12T00:36:09.709Z,77.10
2023-03-12T00:37:09.701Z,77.20
2023-03-12T00:38:09.698Z,77.20
2023-03-12T00:39:09.693Z,77.20
2023-03-12T00:40:09.670Z,77.69
2023-03-12T00:41:09.659Z,78.00
2023-03-12T00:42:09.637Z,77.80
2023-03-12T00:43:09.648Z,77.80
2023-03-12T00:44:09.659Z,77.80
2023-03-12T00:45:09.637Z,77.80
2023-03-12T00:46:09.609Z,77.69
2023-03-12T00:47:09.589Z,77.90
2023-03-12T00:48:09.584Z,78.07
2023-03-12T00:49:09.575Z,77.86
2023-03-12T00:50:09.545Z,77.86
2023-03-12T00:51:09.542Z,77.66
2023-03-12T00:52:09.538Z,77.55
2023-03-12T00:53:09.517Z,77.66
2023-03-12T00:54:09.508Z,77.97
2023-03-12T00:55:09.646Z,77.86
2023-03-12T00:56:09.535Z,77.76
2023-03-12T00:57:09.473Z,77.76
2023-03-12T00:58:09.466Z,78.07
2023-03-12T00:59:09.455Z,78.18
2023-03-12T01:00:09.434Z,78.07
2023-03-12T01:01:09.539Z,77.94
2023-03-12T01:02:09.412Z,77.86
2023-03-12T01:03:09.705Z,78.07
2023-03-12T01:04:09.419Z,78.04
2023-03-12T01:05:09.392Z,77.83
2023-03-12T01:06:09.394Z,78.07
2023-03-12T01:07:09.416Z,77.97
2023-03-12T01:08:09.360Z,78.28
2023-03-12T01:09:09.363Z,78.49
2023-03-12T01:10:09.335Z,78.39
2023-03-12T01:11:09.326Z,78.49
2023-03-12T01:12:09.321Z,78.49
2023-03-12T01:13:09.377Z,78.35
2023-03-12T01:14:09.314Z,78.04
2023-03-12T01:15:10.074Z,77.83
2023-03-12T01:16:09.712Z,77.83
2023-03-12T01:17:09.598Z,77.86
2023-03-12T01:18:09.313Z,77.97
2023-03-12T01:19:09.361Z,78.28
2023-03-12T01:20:09.320Z,78.53
2023-03-12T01:21:09.237Z,78.80
2023-03-12T01:22:09.215Z,79.01
2023-03-12T01:23:09.220Z,78.91
2023-03-12T01:24:09.184Z,78.59
2023-03-12T01:25:09.207Z,78.84
2023-03-12T01:26:09.160Z,78.94
2023-03-12T01:27:09.145Z,79.26
2023-03-12T01:28:09.139Z,78.91
2023-03-12T01:29:09.153Z,78.49
2023-03-12T01:30:09.147Z,78.70
2023-03-12T01:31:09.155Z,78.80
2023-03-12T01:32:09.095Z,78.91
2023-03-12T01:33:09.097Z,78.91
2023-03-12T01:34:09.322Z,78.80
2023-03-12T01:35:09.071Z,78.59
2023-03-12T01:36:09.088Z,78.39
2023-03-12T01:37:09.055Z,78.59
2023-03-12T01:38:09.037Z,78.70
2023-03-12T01:39:09.045Z,78.59
2023-03-12T01:40:09.003Z,78.14
2023-03-12T01:41:09.002Z,78.14
2023-03-12T01:42:09.017Z,77.97
2023-03-12T01:43:08.980Z,78.14
2023-03-12T01:44:08.963Z,77.94
2023-03-12T01:45:09.503Z,78.14
2023-03-12T01:46:08.993Z,77.94
2023-03-12T01:47:08.959Z,78.04
2023-03-12T01:48:08.942Z,77.94
2023-03-12T01:49:08.937Z,77.62
2023-03-12T01:50:08.902Z,77.37
2023-03-12T01:51:08.891Z,77.06
2023-03-12T01:52:08.867Z,76.86
2023-03-12T01:53:08.867Z,76.75
2023-03-12T01:54:08.871Z,76.86
2023-03-12T01:55:08.837Z,76.75
2023-03-12T01:56:08.828Z,76.68
2023-03-12T01:57:08.827Z,77.00
2023-03-12T01:58:08.798Z,77.00
2023-03-12T01:59:08.800Z,77.41
2023-03-12T02:00:08.800Z,77.41
2023-03-12T02:01:08.870Z,77.72
2023-03-12T02:02:08.764Z,77.72
2023-03-12T02:03:08.754Z,77.62
2023-03-12T02:04:08.757Z,77.51
2023-03-12T02:05:08.755Z,77.62
2023-03-12T02:06:08.705Z,77.37
2023-03-12T02:07:08.713Z,77.41
2023-03-12T02:08:08.792Z,77.62
2023-03-12T02:09:08.696Z,77.62
2023-03-12T02:10:08.666Z,77.62
2023-03-12T02:11:08.673Z,77.51
2023-03-12T02:12:08.647Z,77.62
2023-03-12T02:13:08.644Z,77.62
2023-03-12T02:14:08.623Z,77.58
2023-03-12T02:15:08.614Z,77.37
2023-03-12T02:16:08.669Z,77.27
2023-03-12T02:17:08.609Z,77.51
2023-03-12T02:18:08.595Z,77.62
2023-03-12T02:19:08.567Z,77.58
2023-03-12T02:20:08.567Z,77.72
2023-03-12T02:21:08.559Z,78.35
2023-03-12T02:22:08.567Z,78.35
2023-03-12T02:23:08.525Z,78.00
2023-03-12T02:24:08.520Z,77.80
2023-03-12T02:25:08.522Z,77.69
2023-03-12T02:26:08.492Z,77.58
2023-03-12T02:27:08.488Z,77.37
2023-03-12T02:28:08.493Z,77.80
2023-03-12T02:29:08.465Z,77.80
2023-03-12T02:30:08.452Z,77.48
2023-03-12T02:31:08.441Z,77.48
2023-03-12T02:32:08.440Z,77.37
2023-03-12T02:33:08.414Z,77.48
2023-03-12T02:34:08.455Z,77.37
2023-03-12T02:35:08.407Z,77.58
2023-03-12T02:36:08.398Z,77.13
2023-03-12T02:37:08.387Z,76.86
2023-03-12T02:38:08.362Z,77.37
2023-03-12T02:39:08.376Z,77.27
2023-03-12T02:40:08.360Z,77.27
2023-03-12T02:41:08.333Z,76.92
2023-03-12T02:42:08.314Z,76.72
2023-03-12T02:43:08.324Z,76.40
2023-03-12T02:44:08.293Z,76.06
2023-03-12T02:45:08.302Z,75.74
2023-03-12T02:46:08.378Z,75.98
2023-03-12T02:47:08.266Z,75.85
2023-03-12T02:48:08.262Z,75.74
2023-03-12T02:49:08.232Z,75.53
2023-03-12T02:50:08.239Z,75.57
2023-03-12T02:51:08.225Z,75.78
2023-03-12T02:52:08.232Z,75.98
2023-03-12T02:53:08.193Z,75.98
2023-03-12T02:54:08.181Z,75.98
2023-03-12T02:55:08.171Z,75.98
2023-03-12T02:56:08.460Z,75.98
2023-03-12T02:57:08.148Z,75.78
2023-03-12T02:58:08.140Z,75.57
2023-03-12T02:59:08.126Z,76.09
2023-03-12T03:00:08.119Z,75.98
2023-03-12T03:01:08.128Z,75.78
2023-03-12T03:02:08.121Z,75.53
2023-03-12T03:03:08.088Z,75.57
2023-03-12T03:04:08.292Z,75.67
2023-03-12T03:05:08.075Z,75.88
2023-03-12T03:06:08.052Z,75.88
2023-03-12T03:07:08.043Z,75.67
2023-03-12T03:08:08.053Z,75.57
2023-03-12T03:09:08.031Z,76.12
2023-03-12T03:10:08.005Z,76.02
2023-03-12T03:11:07.992Z,76.33
2023-03-12T03:12:07.984Z,76.33
2023-03-12T03:13:07.979Z,76.54
2023-03-12T03:14:07.982Z,76.43
2023-03-12T03:15:07.938Z,76.43
2023-03-12T03:16:08.030Z,76.30
2023-03-12T03:17:07.938Z,76.09
2023-03-12T03:18:07.911Z,75.64
2023-03-12T03:19:07.924Z,75.26
2023-03-12T03:20:07.889Z,75.57
2023-03-12T03:21:07.878Z,75.32
2023-03-12T03:22:07.877Z,75.01
2023-03-12T03:23:07.886Z,74.84
2023-03-12T03:24:07.860Z,75.15
2023-03-12T03:25:07.871Z,75.46
2023-03-12T03:26:07.828Z,75.57
2023-03-12T03:27:07.829Z,75.46
2023-03-12T03:28:07.802Z,75.67
2023-03-12T03:29:07.800Z,75.57
2023-03-12T03:30:07.792Z,75.92
2023-03-12T03:31:07.884Z,76.23
2023-03-12T03:32:07.775Z,76.43
2023-03-12T03:33:07.738Z,76.43
2023-03-12T03:34:07.749Z,76.61
2023-03-12T03:35:07.727Z,76.30
2023-03-12T03:36:07.708Z,76.43
2023-03-12T03:37:07.728Z,76.54
2023-03-12T03:38:07.710Z,76.61
2023-03-12T03:39:07.679Z,76.51
2023-03-12T03:40:07.664Z,76.40
2023-03-12T03:41:07.651Z,76.30
2023-03-12T03:42:07.652Z,76.37
2023-03-12T03:43:07.663Z,76.16
2023-03-12T03:44:07.616Z,75.85
2023-03-12T03:45:07.608Z,75.74
2023-03-12T03:46:07.640Z,75.64
2023-03-12T03:47:07.582Z,75.43
2023-03-12T03:48:07.581Z,75.12
2023-03-12T03:49:07.575Z,75.43
2023-03-12T03:50:07.556Z,75.12
2023-03-12T03:51:07.534Z,74.91
2023-03-12T03:52:07.537Z,75.01
2023-03-12T03:53:07.518Z,74.91
2023-03-12T03:54:07.532Z,74.80
2023-03-12T03:55:07.503Z,74.60
2023-03-12T03:56:07.485Z,74.49
2023-03-12T03:57:07.463Z,74.74
2023-03-12T03:58:07.463Z,74.80
2023-03-12T03:59:07.446Z,74.49
2023-03-12T04:00:07.462Z,74.18
2023-03-12T04:01:07.425Z,74.60
2023-03-12T04:02:07.433Z,74.29
2023-03-12T04:03:07.471Z,74.42
2023-03-12T04:04:07.418Z,74.70
2023-03-12T04:05:07.397Z,74.18
2023-03-12T04:06:07.408Z,74.18
2023-03-12T04:07:07.397Z,73.97
2023-03-12T04:08:07.361Z,74.18
2023-03-12T04:09:07.331Z,73.97
2023-03-12T04:10:07.324Z,74.04
2023-03-12T04:11:07.322Z,73.94
2023-03-12T04:12:07.326Z,73.73
2023-03-12T04:13:07.318Z,73.76
2023-03-12T04:14:07.299Z,73.94
2023-03-12T04:15:07.279Z,73.94
2023-03-12T04:16:07.362Z,74.15
2023-03-12T04:17:07.255Z,74.04
2023-03-12T04:18:07.287Z,74.04
2023-03-12T04:19:07.238Z,74.04
2023-03-12T04:20:07.235Z,74.18
2023-03-12T04:21:07.201Z,74.60
2023-03-12T04:22:07.188Z,74.49
2023-03-12T04:23:07.192Z,74.70
2023-03-12T04:24:07.186Z,74.66
2023-03-12T04:25:07.154Z,74.25
2023-03-12T04:26:07.149Z,74.35
2023-03-12T04:27:07.140Z,74.15
2023-03-12T04:28:07.125Z,73.83
2023-03-12T04:29:07.108Z,73.94
2023-03-12T04:30:07.118Z,74.25
2023-03-12T04:31:07.222Z,74.21
2023-03-12T04:32:07.083Z,73.90
2023-03-12T04:33:07.063Z,73.80
2023-03-12T04:34:07.048Z,73.90
2023-03-12T04:35:07.048Z,74.01
2023-03-12T04:36:07.082Z,74.11
2023-03-12T04:37:07.008Z,74.01
2023-03-12T04:38:07.014Z,73.80
2023-03-12T04:39:06.988Z,73.42
2023-03-12T04:40:06.980Z,73.80
2023-03-12T04:41:07.011Z,73.59
2023-03-12T04:42:06.984Z,73.38
2023-03-12T04:43:06.948Z,73.38
2023-03-12T04:44:06.963Z,73.63
2023-03-12T04:45:06.932Z,73.59
2023-03-12T04:46:06.910Z,73.73
2023-03-12T04:47:06.939Z,74.01
2023-03-12T04:48:06.899Z,73.69
2023-03-12T04:49:06.901Z,73.25
2023-03-12T04:50:06.897Z,73.18
2023-03-12T04:51:06.861Z,73.49
2023-03-12T04:52:06.892Z,73.52
2023-03-12T04:53:06.856Z,73.94
2023-03-12T04:54:06.835Z,73.94
2023-03-12T04:55:06.832Z,74.39
2023-03-12T04:56:06.813Z,74.60
2023-03-12T04:57:06.801Z,74.91
2023-03-12T04:58:06.821Z,74.77
2023-03-12T04:59:06.773Z,74.77
2023-03-12T05:00:06.777Z,74.66
2023-03-12T05:01:06.765Z,74.04
2023-03-12T05:02:06.750Z,74.35
2023-03-12T05:03:06.732Z,74.70
2023-03-12T05:04:06.757Z,75.01
2023-03-12T05:05:06.702Z,74.91
2023-03-12T05:06:06.704Z,74.66
2023-03-12T05:07:06.672Z,74.35
2023-03-12T05:08:06.676Z,74.46
2023-03-12T05:09:06.669Z,74.32
2023-03-12T05:10:06.685Z,73.73
2023-03-12T05:11:06.632Z,73.83
2023-03-12T05:12:06.627Z,73.97
2023-03-12T05:13:06.627Z,74.04
2023-03-12T05:14:06.609Z,74.04
2023-03-12T05:15:06.587Z,74.29
2023-03-12T05:16:06.631Z,74.56
2023-03-12T05:17:06.580Z,74.56
2023-03-12T05:18:06.562Z,74.53
2023-03-12T05:19:06.553Z,73.90
2023-03-12T05:20:06.538Z,73.59
2023-03-12T05:21:06.545Z,73.59
2023-03-12T05:22:06.512Z,73.94
2023-03-12T05:23:06.493Z,74.04
2023-03-12T05:24:06.520Z,74.18
2023-03-12T05:25:06.481Z,74.80
2023-03-12T05:26:06.470Z,75.19
2023-03-12T05:27:06.492Z,74.56
2023-03-12T05:28:06.440Z,74.66
2023-03-12T05:29:06.430Z,74.66
2023-03-12T05:30:06.434Z,74.25
2023-03-12T05:31:06.484Z,74.56
2023-03-12T05:32:06.414Z,74.56
2023-03-12T05:33:06.408Z,74.74
2023-03-12T05:34:06.387Z,74.53
2023-03-12T05:35:06.360Z,74.63
2023-03-12T05:36:06.421Z,74.95
2023-03-12T05:37:06.346Z,74.95
2023-03-12T05:38:06.328Z,75.05
2023-03-12T05:39:06.347Z,75.05
2023-03-12T05:40:06.308Z,75.50
2023-03-12T05:41:06.359Z,76.12
2023-03-12T05:42:06.353Z,75.95
2023-03-12T05:43:06.351Z,76.12
2023-03-12T05:44:13.377Z,75.92
2023-03-12T05:45:06.253Z,75.81
2023-03-12T05:46:06.265Z,75.60
2023-03-12T05:47:06.255Z,75.64
2023-03-12T05:48:06.228Z,76.37
2023-03-12T05:49:06.202Z,76.78
2023-03-12T05:50:06.218Z,76.37
2023-03-12T05:51:06.172Z,76.43
2023-03-12T05:52:06.172Z,75.57
2023-03-12T05:53:06.153Z,75.43
2023-03-12T05:54:06.140Z,75.85
2023-03-12T05:55:06.130Z,76.12
2023-03-12T05:56:06.138Z,75.92
2023-03-12T05:57:06.125Z,75.71
2023-03-12T05:58:06.098Z,75.46
2023-03-12T05:59:06.103Z,75.36
2023-03-12T06:00:06.074Z,74.98
2023-03-12T06:01:06.057Z,75.71
2023-03-12T06:02:06.149Z,75.78
2023-03-12T06:03:06.082Z,75.22
2023-03-12T06:04:06.025Z,74.63
2023-03-12T06:05:06.008Z,74.74
2023-03-12T06:06:06.009Z,74.84
2023-03-12T06:07:05.985Z,75.46
2023-03-12T06:08:06.003Z,75.36
2023-03-12T06:09:05.967Z,75.05
2023-03-12T06:10:05.962Z,74.84
2023-03-12T06:11:05.943Z,74.74
2023-03-12T06:12:05.938Z,74.53
2023-03-12T06:13:05.948Z,74.63
2023-03-12T06:14:05.914Z,74.53
2023-03-12T06:15:05.902Z,74.43
2023-03-12T06:16:05.891Z,74.63
2023-03-12T06:17:05.871Z,74.60
2023-03-12T06:18:05.861Z,74.18
2023-03-12T06:19:05.870Z,73.77
2023-03-12T06:20:05.842Z,73.56
2023-03-12T06:21:05.825Z,73.46
2023-03-12T06:22:05.884Z,74.08
2023-03-12T06:23:05.803Z,73.46
2023-03-12T06:24:05.794Z,73.14
2023-03-12T06:25:05.790Z,73.03
2023-03-12T06:26:05.778Z,73.11
2023-03-12T06:27:05.759Z,72.69
2023-03-12T06:28:05.760Z,72.38
2023-03-12T06:29:05.742Z,72.55
2023-03-12T06:30:05.754Z,72.17
2023-03-12T06:31:05.786Z,71.97
2023-03-12T06:32:05.700Z,71.83
2023-03-12T06:33:05.707Z,71.41
2023-03-12T06:34:05.679Z,71.31
2023-03-12T06:35:05.669Z,71.38
2023-03-12T06:36:05.699Z,71.07
2023-03-12T06:37:05.663Z,71.38
2023-03-12T06:38:05.631Z,71.00
2023-03-12T06:39:05.630Z,71.20
2023-03-12T06:40:05.614Z,71.38
2023-03-12T06:41:05.609Z,70.65
2023-03-12T06:42:05.609Z,70.54
2023-03-12T06:43:05.579Z,70.65
2023-03-12T06:44:05.568Z,70.58
2023-03-12T06:45:05.558Z,71.41
2023-03-12T06:46:05.585Z,71.17
2023-03-12T06:47:05.528Z,70.89
2023-03-12T06:48:05.559Z,70.89
2023-03-12T06:49:05.509Z,70.89
2023-03-12T06:50:05.499Z,71.20
2023-03-12T06:51:05.495Z,70.68
2023-03-12T06:52:05.490Z,71.00
2023-03-12T06:53:05.477Z,70.86
2023-03-12T06:54:05.473Z,70.65
2023-03-12T06:55:05.458Z,70.31
2023-03-12T06:56:05.427Z,69.79
2023-03-12T06:57:05.431Z,69.61
2023-03-12T06:58:05.407Z,70.23
2023-03-12T06:59:05.422Z,70.00
2023-03-12T07:00:05.406Z,70.00
2023-03-12T07:01:05.406Z,70.00
2023-03-12T07:02:05.409Z,69.79
2023-03-12T07:03:05.350Z,69.86
2023-03-12T07:04:05.348Z,69.45
2023-03-12T07:05:05.396Z,69.34
2023-03-12T07:06:05.355Z,69.24
2023-03-12T07:07:05.315Z,69.17
2023-03-12T07:08:05.304Z,69.24
2023-03-12T07:09:05.293Z,69.45
2023-03-12T07:10:05.293Z,68.93
2023-03-12T07:11:05.281Z,68.65
2023-03-12T07:12:05.256Z,68.65
2023-03-12T07:13:05.251Z,68.65
2023-03-12T07:14:05.306Z,68.75
2023-03-12T07:15:05.232Z,68.65
2023-03-12T07:16:05.308Z,68.85
2023-03-12T07:17:05.202Z,68.96
2023-03-12T07:18:05.192Z,69.03
2023-03-12T07:19:05.195Z,68.75
2023-03-12T07:20:05.164Z,68.72
2023-03-12T07:21:05.161Z,68.65
2023-03-12T07:22:05.163Z,68.65
2023-03-12T07:23:05.133Z,68.85
2023-03-12T07:24:05.124Z,69.06
2023-03-12T07:25:05.184Z,69.17
2023-03-12T07:26:05.102Z,68.75
2023-03-12T07:27:05.093Z,68.51
2023-03-12T07:28:05.109Z,68.48
2023-03-12T07:29:05.085Z,68.17
2023-03-12T07:30:05.061Z,67.96
2023-03-12T07:31:05.102Z,68.07
2023-03-12T07:32:05.041Z,67.89
2023-03-12T07:33:05.099Z,68.51
2023-03-12T07:34:05.098Z,69.68
2023-03-12T07:35:05.028Z,69.79
2023-03-12T07:36:05.062Z,70.07
2023-03-12T07:37:04.981Z,69.79
2023-03-12T07:38:04.987Z,70.31
2023-03-12T07:39:04.964Z,70.59
2023-03-12T07:40:05.036Z,70.48
2023-03-12T07:41:04.982Z,70.20
2023-03-12T07:42:04.952Z,70.72
2023-03-12T07:43:04.911Z,71.28
2023-03-12T07:44:04.936Z,71.34
2023-03-12T07:45:04.935Z,71.00
2023-03-12T07:46:04.883Z,70.59
2023-03-12T07:47:16.574Z,70.04
2023-03-12T07:48:05.902Z,69.69
2023-03-12T07:49:04.836Z,69.38
2023-03-12T07:50:04.854Z,69.48
2023-03-12T07:51:04.860Z,68.96
2023-03-12T07:52:04.806Z,68.73
2023-03-12T07:53:04.796Z,68.48
2023-03-12T07:54:04.779Z,69.00
2023-03-12T07:55:04.782Z,69.03
2023-03-12T07:56:04.933Z,69.00
2023-03-12T07:57:04.902Z,68.82
2023-03-12T07:58:04.845Z,69.13
2023-03-12T07:59:04.846Z,69.55
2023-03-12T08:00:04.774Z,69.55
2023-03-12T08:01:04.734Z,69.62
2023-03-12T08:02:04.827Z,69.10
2023-03-12T08:03:04.879Z,68.69
2023-03-12T08:04:04.826Z,69.13
2023-03-12T08:05:04.700Z,69.13
2023-03-12T08:06:04.747Z,69.34
2023-03-12T08:07:05.846Z,69.21
2023-03-12T08:08:04.642Z,69.10
2023-03-12T08:09:04.612Z,68.93
2023-03-12T08:10:04.614Z,69.34
2023-03-12T08:11:04.592Z,69.55
2023-03-12T08:12:04.600Z,69.45
2023-03-12T08:13:04.635Z,69.10
2023-03-12T08:14:04.573Z,69.13
2023-03-12T08:15:04.569Z,69.45
2023-03-12T08:16:04.568Z,69.34
2023-03-12T08:17:04.529Z,69.45
2023-03-12T08:18:04.519Z,70.07
2023-03-12T08:19:04.501Z,70.45
2023-03-12T08:20:04.522Z,70.07
2023-03-12T08:21:04.515Z,70.17
2023-03-12T08:22:04.469Z,70.28
2023-03-12T08:23:04.451Z,70.45
2023-03-12T08:24:04.448Z,70.14
2023-03-12T08:25:04.444Z,70.66
2023-03-12T08:26:04.462Z,70.25
2023-03-12T08:27:04.420Z,70.31
2023-03-12T08:28:04.397Z,70.21
2023-03-12T08:29:04.394Z,70.18
2023-03-12T08:30:04.370Z,70.10
2023-03-12T08:31:04.359Z,70.49
2023-03-12T08:32:05.657Z,70.80
2023-03-12T08:33:04.377Z,70.83
2023-03-12T08:34:04.329Z,71.35
2023-03-12T08:35:04.323Z,71.97
2023-03-12T08:36:04.379Z,71.66
2023-03-12T08:37:04.323Z,72.39
2023-03-12T08:38:04.277Z,72.39
2023-03-12T08:39:04.278Z,72.88
2023-03-12T08:40:04.263Z,72.98
2023-03-12T08:41:04.258Z,73.32
2023-03-12T08:42:04.237Z,73.98
2023-03-12T08:43:04.249Z,74.81
2023-03-12T08:44:04.207Z,75.02
2023-03-12T08:45:04.213Z,75.85
2023-03-12T08:46:04.238Z,76.26
2023-03-12T08:47:04.198Z,76.78
2023-03-12T08:48:04.182Z,77.61
2023-03-12T08:49:04.183Z,77.78
2023-03-12T08:50:04.147Z,77.89
2023-03-12T08:51:04.200Z,77.72
2023-03-12T08:52:04.145Z,78.34
2023-03-12T08:53:04.115Z,78.61
2023-03-12T08:54:04.111Z,78.41
2023-03-12T08:55:04.133Z,78.58
2023-03-12T08:56:04.117Z,77.78
2023-03-12T08:57:04.101Z,78.61
2023-03-12T08:58:04.063Z,78.82
2023-03-12T08:59:04.050Z,78.58
2023-03-12T09:00:04.031Z,78.51
2023-03-12T09:01:04.041Z,78.82
2023-03-12T09:02:04.021Z,79.38
2023-03-12T09:03:04.069Z,79.38
2023-03-12T09:04:04.127Z,79.65
2023-03-12T09:05:03.986Z,80.00
2023-03-12T09:06:03.991Z,80.21
2023-03-12T09:07:03.981Z,79.96
2023-03-12T09:08:03.953Z,79.71
2023-03-12T09:09:03.942Z,79.10
2023-03-12T09:10:03.929Z,78.68
2023-03-12T09:11:03.915Z,78.99
2023-03-12T09:12:03.920Z,78.58
2023-03-12T09:13:03.893Z,78.27
2023-03-12T09:14:57.444Z,78.82
2023-03-12T09:15:05.348Z,80.24
2023-03-12T09:16:03.861Z,81.04
2023-03-12T09:17:03.997Z,80.83
2023-03-12T09:18:03.850Z,81.04
2023-03-12T09:19:03.835Z,81.70
2023-03-12T09:20:03.809Z,81.90
2023-03-12T09:21:03.800Z,82.21
2023-03-12T09:22:03.790Z,82.42
2023-03-12T09:23:04.168Z,82.73
2023-03-12T09:24:03.758Z,82.73
2023-03-12T09:25:03.767Z,83.32
2023-03-12T09:26:03.737Z,82.49
2023-03-12T09:27:03.726Z,82.07
2023-03-12T09:28:03.720Z,82.07
2023-03-12T09:29:03.744Z,82.07
2023-03-12T09:30:03.712Z,81.97
2023-03-12T09:31:03.736Z,82.28
2023-03-12T09:32:05.855Z,82.59
2023-03-12T09:33:03.665Z,82.34
2023-03-12T09:34:03.671Z,81.97
2023-03-12T09:35:03.654Z,82.39
2023-03-12T09:36:03.691Z,82.63
2023-03-12T09:37:03.616Z,82.90
2023-03-12T09:38:03.602Z,82.80
2023-03-12T09:39:03.597Z,82.97
2023-03-12T09:40:03.572Z,82.20
2023-03-12T09:41:03.593Z,81.93
2023-03-12T09:42:03.552Z,82.10
2023-03-12T09:43:03.552Z,81.82
2023-03-12T09:44:03.539Z,82.34
2023-03-12T09:45:03.522Z,82.24
2023-03-12T09:46:03.520Z,82.20
2023-03-12T09:47:03.513Z,81.72
2023-03-12T09:48:03.521Z,81.93
2023-03-12T09:49:03.482Z,82.76
2023-03-12T09:50:03.464Z,82.55
2023-03-12T09:51:03.450Z,82.45
2023-03-12T09:52:03.473Z,82.55
2023-03-12T09:53:03.455Z,82.76
2023-03-12T09:54:03.445Z,82.62
2023-03-12T09:55:03.427Z,82.17
2023-03-12T09:56:03.401Z,81.75
2023-03-12T09:57:03.401Z,81.23
2023-03-12T09:58:03.391Z,81.20
2023-03-12T09:59:03.408Z,81.09
2023-03-12T10:00:03.361Z,81.20
2023-03-12T10:01:03.342Z,81.09
2023-03-12T10:02:03.330Z,80.82
2023-03-12T10:03:03.374Z,81.79
2023-03-12T10:04:03.351Z,82.62
2023-03-12T10:05:03.331Z,82.31
2023-03-12T10:06:03.343Z,82.72
2023-03-12T10:07:03.271Z,82.72
2023-03-12T10:08:13.777Z,83.07
2023-03-12T10:09:04.271Z,83.17
2023-03-12T10:10:03.236Z,83.38
2023-03-12T10:11:03.230Z,83.24
2023-03-12T10:12:03.244Z,83.28
2023-03-12T10:13:03.202Z,83.55
2023-03-12T10:14:03.203Z,83.14
2023-03-12T10:15:03.191Z,82.93
2023-03-12T10:16:03.206Z,83.07
2023-03-12T10:17:03.165Z,83.65
2023-03-12T10:18:03.210Z,83.86
2023-03-12T10:19:03.163Z,84.17
2023-03-12T10:20:03.143Z,83.83
2023-03-12T10:21:03.131Z,84.44
2023-03-12T10:22:03.103Z,84.23
2023-03-12T10:23:03.092Z,83.99
2023-03-12T10:24:03.130Z,83.72
2023-03-12T10:25:03.088Z,84.13
2023-03-12T10:26:03.151Z,83.55
2023-03-12T10:27:03.068Z,84.38
2023-03-12T10:28:03.031Z,85.17
2023-03-12T10:29:03.024Z,85.03
2023-03-12T10:30:03.025Z,84.20
2023-03-12T10:31:03.047Z,83.99
2023-03-12T10:32:03.020Z,83.78
2023-03-12T10:33:03.000Z,83.78
2023-03-12T10:34:02.980Z,83.83
2023-03-12T10:35:02.968Z,84.44
2023-03-12T10:36:02.968Z,84.20
2023-03-12T10:37:02.938Z,83.78
2023-03-12T10:38:02.958Z,83.99
2023-03-12T10:39:02.910Z,83.99
2023-03-12T10:40:02.908Z,83.89
2023-03-12T10:41:02.900Z,83.93
2023-03-12T10:42:02.879Z,84.69
2023-03-12T10:43:02.866Z,85.63
2023-03-12T10:44:02.884Z,86.00
2023-03-12T10:45:02.839Z,85.17
2023-03-12T10:46:02.882Z,85.06
2023-03-12T10:47:02.825Z,85.89
2023-03-12T10:48:02.823Z,86.21
2023-03-12T10:49:02.787Z,86.17
2023-03-12T10:50:02.817Z,85.86
2023-03-12T10:51:02.768Z,85.89
2023-03-12T10:52:02.805Z,86.62
2023-03-12T10:53:02.757Z,86.52
2023-03-12T10:54:02.747Z,86.79
2023-03-12T10:55:02.747Z,86.44
2023-03-12T10:56:02.722Z,85.86
2023-03-12T10:57:02.708Z,86.68
2023-03-12T10:58:02.698Z,86.27
2023-03-12T10:59:02.677Z,86.62
2023-03-12T11:00:02.665Z,86.99
2023-03-12T11:01:02.698Z,87.27
2023-03-12T11:02:02.729Z,87.20
2023-03-12T11:03:02.627Z,87.43
2023-03-12T11:04:02.636Z,86.77
2023-03-12T11:05:02.644Z,86.63
2023-03-12T11:06:02.673Z,85.39
2023-03-12T11:07:02.728Z,85.39
2023-03-12T11:08:02.578Z,84.91
2023-03-12T11:09:15.779Z,85.63
2023-03-12T11:10:03.557Z,85.68
2023-03-12T11:11:02.544Z,86.50
2023-03-12T11:12:02.536Z,86.36
2023-03-12T11:13:02.546Z,86.94
2023-03-12T11:14:02.517Z,86.32
2023-03-12T11:15:02.504Z,85.39
2023-03-12T11:16:02.553Z,85.70
2023-03-12T11:17:02.479Z,84.97
2023-03-12T11:18:02.503Z,84.87
2023-03-12T11:19:02.838Z,84.87
2023-03-12T11:20:02.446Z,84.70
2023-03-12T11:21:02.436Z,85.26
2023-03-12T11:22:02.436Z,85.99
2023-03-12T11:23:02.417Z,85.78
2023-03-12T11:24:02.407Z,86.02
2023-03-12T11:25:02.407Z,86.29
2023-03-12T11:26:02.378Z,86.50
2023-03-12T11:27:02.368Z,86.50
2023-03-12T11:28:02.365Z,86.98
2023-03-12T11:29:02.352Z,86.46
2023-03-12T11:30:02.334Z,86.49
2023-03-12T11:31:02.361Z,86.07
2023-03-12T11:32:02.406Z,84.63
2023-03-12T11:33:02.313Z,84.97
2023-03-12T11:34:02.306Z,85.24
2023-03-12T11:35:02.290Z,85.31
2023-03-12T11:36:02.283Z,84.75
2023-03-12T11:37:02.256Z,84.55
2023-03-12T11:38:02.245Z,83.89
2023-03-12T11:39:02.232Z,83.48
2023-03-12T11:40:02.225Z,83.00
2023-03-12T11:41:02.209Z,83.14
2023-03-12T11:42:02.229Z,84.07
2023-03-12T11:43:02.188Z,83.76
2023-03-12T11:44:02.185Z,84.11
2023-03-12T11:45:09.215Z,84.28
2023-03-12T11:46:02.164Z,83.94
2023-03-12T11:47:02.147Z,84.52
2023-03-12T11:48:02.164Z,84.00
2023-03-12T11:49:02.124Z,84.28
2023-03-12T11:50:02.133Z,83.45
2023-03-12T11:51:02.115Z,83.39
2023-03-12T11:52:02.103Z,83.90
2023-03-12T11:53:02.110Z,83.97
2023-03-12T11:54:02.101Z,83.14
2023-03-12T11:55:02.053Z,83.45
2023-03-12T11:56:02.062Z,83.76
2023-03-12T11:57:02.039Z,82.83
2023-03-12T11:58:02.035Z,83.10
2023-03-12T11:59:02.055Z,82.17
2023-03-12T12:00:02.031Z,82.45
2023-03-12T12:01:01.986Z,82.20
2023-03-12T12:02:02.037Z,81.51
2023-03-12T12:03:02.170Z,81.58
2023-03-12T12:04:01.957Z,81.68
2023-03-12T12:05:01.978Z,81.34
2023-03-12T12:06:01.947Z,80.76
2023-03-12T12:07:01.929Z,80.76
2023-03-12T12:08:01.925Z,81.13
2023-03-12T12:09:01.938Z,80.89
2023-03-12T12:10:01.917Z,80.20
2023-03-12T12:11:02.146Z,80.47
2023-03-12T12:12:04.894Z,79.75
2023-03-12T12:13:01.857Z,80.02
2023-03-12T12:14:01.857Z,79.41
2023-03-12T12:15:01.877Z,79.65
2023-03-12T12:16:01.942Z,79.10
2023-03-12T12:17:01.832Z,80.40
2023-03-12T12:18:01.808Z,79.95
2023-03-12T12:19:04.106Z,78.10
2023-03-12T12:20:01.783Z,77.66
2023-03-12T12:21:01.764Z,78.89
2023-03-12T12:22:01.815Z,79.24
2023-03-12T12:23:01.750Z,80.02
2023-03-12T12:24:01.725Z,79.79
2023-03-12T12:25:01.742Z,78.61
2023-03-12T12:26:01.705Z,77.75
2023-03-12T12:27:01.694Z,76.97
2023-03-12T12:28:01.706Z,78.03
2023-03-12T12:29:01.686Z,77.79
2023-03-12T12:30:01.673Z,78.03
2023-03-12T12:31:01.649Z,78.20
2023-03-12T12:32:01.744Z,78.17
2023-03-12T12:33:01.629Z,77.38
2023-03-12T12:34:01.655Z,78.06
2023-03-12T12:35:01.663Z,77.89
2023-03-12T12:36:01.655Z,76.48
2023-03-12T12:37:01.601Z,76.18
2023-03-12T12:38:01.586Z,75.87
2023-03-12T12:39:01.575Z,76.73
2023-03-12T12:40:01.567Z,77.31
2023-03-12T12:41:01.535Z,76.55
2023-03-12T12:42:01.525Z,75.83
2023-03-12T12:43:01.530Z,75.38
2023-03-12T12:44:01.513Z,75.90
2023-03-12T12:45:01.515Z,74.74
2023-03-12T12:46:01.500Z,74.02
2023-03-12T12:47:01.464Z,74.91
2023-03-12T12:48:01.457Z,74.08
2023-03-12T12:49:01.435Z,73.61
2023-03-12T12:50:01.480Z,72.78
2023-03-12T12:51:01.437Z,72.41
2023-03-12T12:52:01.417Z,73.30